sensor_id;sensor_type;location;lat;lon;timestamp;pressure;altitude;pressure_sealevel;temperature;humidity
80533;BME280;69861;48.642;9.142;2023-05-02T00:01:25;97108.63;;;23.91;42.97
80533;BME280;69861;48.642;9.142;2023-05-02T00:03:50;97108.63;;;23.91;43.07
80533;BME280;69861;48.642;9.142;2023-05-02T00:06:15;97111.00;;;23.93;42.92
80533;BME280;69861;48.642;9.142;2023-05-02T00:08:41;97102.16;;;23.92;42.61
80533;BME280;69861;48.642;9.142;2023-05-02T00:11:06;97105.16;;;23.91;42.56
80533;BME280;69861;48.642;9.142;2023-05-02T00:13:31;97098.72;;;23.92;42.94
80533;BME280;69861;48.642;9.142;2023-05-02T00:15:57;97104.84;;;23.92;42.55
80533;BME280;69861;48.642;9.142;2023-05-02T00:18:22;97097.91;;;23.91;42.53
80533;BME280;69861;48.642;9.142;2023-05-02T00:20:49;97097.91;;;23.91;42.41
80533;BME280;69861;48.642;9.142;2023-05-02T00:23:14;97097.13;;;23.91;42.51
80533;BME280;69861;48.642;9.142;2023-05-02T00:25:44;97102.72;;;23.89;42.87
80533;BME280;69861;48.642;9.142;2023-05-02T00:28:09;97100.88;;;23.90;42.96
80533;BME280;69861;48.642;9.142;2023-05-02T00:30:35;97102.72;;;23.89;42.85
80533;BME280;69861;48.642;9.142;2023-05-02T00:33:00;97104.91;;;23.87;42.56
80533;BME280;69861;48.642;9.142;2023-05-02T00:35:26;97103.53;;;23.90;42.96
80533;BME280;69861;48.642;9.142;2023-05-02T00:37:51;97100.06;;;23.89;42.55
80533;BME280;69861;48.642;9.142;2023-05-02T00:40:17;97099.00;;;23.90;42.80
80533;BME280;69861;48.642;9.142;2023-05-02T00:42:42;97107.28;;;23.89;42.78
80533;BME280;69861;48.642;9.142;2023-05-02T00:45:08;97105.72;;;23.88;42.50
80533;BME280;69861;48.642;9.142;2023-05-02T00:47:34;97101.13;;;23.88;42.34
80533;BME280;69861;48.642;9.142;2023-05-02T00:49:59;97108.66;;;23.86;42.37
80533;BME280;69861;48.642;9.142;2023-05-02T00:52:25;97104.91;;;23.87;42.59
80533;BME280;69861;48.642;9.142;2023-05-02T00:54:50;97107.59;;;23.87;42.73
80533;BME280;69861;48.642;9.142;2023-05-02T00:57:16;97115.06;;;23.85;42.74
80533;BME280;69861;48.642;9.142;2023-05-02T00:59:42;97110.25;;;23.87;42.42
80533;BME280;69861;48.642;9.142;2023-05-02T01:02:37;97115.31;;;23.89;42.62
80533;BME280;69861;48.642;9.142;2023-05-02T01:05:37;97111.59;;;23.84;42.43
80533;BME280;69861;48.642;9.142;2023-05-02T01:08:24;97123.91;;;23.86;42.50
80533;BME280;69861;48.642;9.142;2023-05-02T01:11:06;97117.75;;;23.85;42.75
80533;BME280;69861;48.642;9.142;2023-05-02T01:13:36;97116.94;;;23.84;42.59
80533;BME280;69861;48.642;9.142;2023-05-02T01:16:04;97122.28;;;23.84;42.43
80533;BME280;69861;48.642;9.142;2023-05-02T01:18:34;97121.50;;;23.84;42.40
80533;BME280;69861;48.642;9.142;2023-05-02T01:21:05;97124.16;;;23.84;42.40
80533;BME280;69861;48.642;9.142;2023-05-02T01:23:47;97122.28;;;23.84;42.72
80533;BME280;69861;48.642;9.142;2023-05-02T01:26:34;97127.94;;;23.83;42.71
80533;BME280;69861;48.642;9.142;2023-05-02T01:29:02;97126.06;;;23.83;42.62
80533;BME280;69861;48.642;9.142;2023-05-02T01:31:33;97119.91;;;23.83;42.42
80533;BME280;69861;48.642;9.142;2023-05-02T01:34:00;97124.47;;;23.82;42.23
80533;BME280;69861;48.642;9.142;2023-05-02T01:36:29;97126.34;;;23.82;42.45
80533;BME280;69861;48.642;9.142;2023-05-02T01:38:57;97123.41;;;23.83;42.67
80533;BME280;69861;48.642;9.142;2023-05-02T01:41:28;97132.19;;;23.84;42.70
80533;BME280;69861;48.642;9.142;2023-05-02T01:43:58;97124.47;;;23.82;42.37
80533;BME280;69861;48.642;9.142;2023-05-02T01:46:26;97123.41;;;23.83;42.24
80533;BME280;69861;48.642;9.142;2023-05-02T01:48:53;97126.34;;;23.82;42.37
80533;BME280;69861;48.642;9.142;2023-05-02T01:51:26;97122.06;;;23.81;42.40
80533;BME280;69861;48.642;9.142;2023-05-02T01:53:55;97127.94;;;23.83;42.51
80533;BME280;69861;48.642;9.142;2023-05-02T01:56:23;97128.75;;;23.83;42.58
80533;BME280;69861;48.642;9.142;2023-05-02T01:58:51;97133.31;;;23.83;42.55
80533;BME280;69861;48.642;9.142;2023-05-02T02:01:18;97127.94;;;23.83;42.35
80533;BME280;69861;48.642;9.142;2023-05-02T02:03:45;97123.66;;;23.82;42.46
80533;BME280;69861;48.642;9.142;2023-05-02T02:06:12;97129.00;;;23.82;42.28
80533;BME280;69861;48.642;9.142;2023-05-02T02:08:38;97122.84;;;23.81;42.21
80533;BME280;69861;48.642;9.142;2023-05-02T02:11:08;97124.72;;;23.81;42.44
80533;BME280;69861;48.642;9.142;2023-05-02T02:13:38;97120.44;;;23.80;42.13
80533;BME280;69861;48.642;9.142;2023-05-02T02:16:10;97121.25;;;23.80;41.95
80533;BME280;69861;48.642;9.142;2023-05-02T02:18:38;97125.81;;;23.80;42.02
80533;BME280;69861;48.642;9.142;2023-05-02T02:21:06;97132.75;;;23.81;41.96
80533;BME280;69861;48.642;9.142;2023-05-02T02:23:33;97132.25;;;23.79;42.38
80533;BME280;69861;48.642;9.142;2023-05-02T02:26:01;97133.84;;;23.80;42.42
80533;BME280;69861;48.642;9.142;2023-05-02T02:28:28;97138.13;;;23.81;41.92
80533;BME280;69861;48.642;9.142;2023-05-02T02:30:53;97143.47;;;23.81;42.04
80533;BME280;69861;48.642;9.142;2023-05-02T02:33:19;97148.31;;;23.79;42.30
80533;BME280;69861;48.642;9.142;2023-05-02T02:35:53;97152.06;;;23.78;42.17
80533;BME280;69861;48.642;9.142;2023-05-02T02:38:45;97149.88;;;23.80;42.20
80533;BME280;69861;48.642;9.142;2023-05-02T02:41:17;97160.88;;;23.78;42.04
80533;BME280;69861;48.642;9.142;2023-05-02T02:44:09;97163.03;;;23.76;42.04
80533;BME280;69861;48.642;9.142;2023-05-02T02:47:08;97170.25;;;23.76;42.35
80533;BME280;69861;48.642;9.142;2023-05-02T02:49:43;97170.81;;;23.73;42.12
80533;BME280;69861;48.642;9.142;2023-05-02T02:52:31;97172.41;;;23.74;42.39
80533;BME280;69861;48.642;9.142;2023-05-02T02:55:12;97172.16;;;23.70;42.32
80533;BME280;69861;48.642;9.142;2023-05-02T02:57:58;97169.75;;;23.69;42.38
80533;BME280;69861;48.642;9.142;2023-05-02T03:00:26;97175.88;;;23.74;41.99
80533;BME280;69861;48.642;9.142;2023-05-02T03:02:53;97170.28;;;23.71;42.23
80533;BME280;69861;48.642;9.142;2023-05-02T03:05:21;97181.00;;;23.71;42.14
80533;BME280;69861;48.642;9.142;2023-05-02T03:07:46;97189.28;;;23.69;41.94
80533;BME280;69861;48.642;9.142;2023-05-02T03:10:12;97184.75;;;23.70;42.25
80533;BME280;69861;48.642;9.142;2023-05-02T03:12:37;97189.78;;;23.71;42.12
80533;BME280;69861;48.642;9.142;2023-05-02T03:15:13;97195.16;;;23.71;41.96
80533;BME280;69861;48.642;9.142;2023-05-02T03:17:42;97197.03;;;23.71;42.16
80533;BME280;69861;48.642;9.142;2023-05-02T03:20:08;97197.81;;;23.71;41.84
80533;BME280;69861;48.642;9.142;2023-05-02T03:22:33;97190.34;;;23.73;42.07
80533;BME280;69861;48.642;9.142;2023-05-02T03:24:58;97214.69;;;23.72;41.99
80533;BME280;69861;48.642;9.142;2023-05-02T03:27:24;97201.59;;;23.70;42.30
80533;BME280;69861;48.642;9.142;2023-05-02T03:29:50;97211.66;;;23.89;43.40
80533;BME280;69861;48.642;9.142;2023-05-02T03:32:15;97210.00;;;23.98;41.38
